Etusivu
METAR-TAF:

METAR-TAF

Lentoasemat :

Morlaix, Ranska

Leveyspiiri: 48-36N, Pituuspiiri: 3-49W, korkeus merenpinnasta: 84 m

Tämänhetkinen sää

Tämä raportti tehtiin 32 minuuttia sitten, kello 11.00 UTC
Tuuli 7 kn pohjoisesta, vaihdellen luoteen ja koillisen välillä
Lämpötila 18°C
Kosteus 77%
Ilmanpaine 1021 hPa
Näkyvyys 10 km tai enemmän
Muutamia pilviä 1400 ft:n korkeudessa
Hajanaisia pilviä 2600 ft:n korkeudessa
Hajonneita pilviä 4400 ft:n korkeudessa

METAR: LFRU 101100Z AUTO 35007KT 310V050 9999 FEW014 SCT026 BKN044 18/14 Q1021

Aika: 13:32 (11:32 UTC)


TAF: puuttuu

Säähavainnot ja -ennusteet yli 4000 lentoasemalta (METAR- ja TAF-raportit).

Käytössä olevat sääasemat on merkitty karttaan keltaisilla ja punaisilla pisteillä.

Aseta hiiri pisteen päälle nähdäksesi sääaseman nimen.

Klikkaa sitten nähdäksesi säähavainnot ja -ennusteet.

Kartan vaihtaminen: klikkaa mustalla rastilla varustettuja vihreitä pisteitä, niin voit zoomata sisään; viivalla varustettua vihreää pistettä, niin voit zoomata ulos tai vihreitä nuolia, niin pääset viereisille kartoille.


METAR-TAF: